createdAt,value
2024-01-30T00:05:52.509Z,20.34
2024-01-30T00:20:55.077Z,20.28
2024-01-30T00:35:58.759Z,20.33
2024-01-30T00:51:01.271Z,20.42
2024-01-30T01:06:04.112Z,20.46
2024-01-30T01:21:07.209Z,20.50
2024-01-30T01:36:09.676Z,20.53
2024-01-30T01:51:11.754Z,20.54
2024-01-30T02:06:16.999Z,20.58
2024-01-30T02:21:20.330Z,20.60
2024-01-30T02:36:22.883Z,20.61
2024-01-30T02:51:25.484Z,20.62
2024-01-30T03:06:27.986Z,20.62
2024-01-30T03:21:30.484Z,20.63
2024-01-30T03:36:36.678Z,20.64
2024-01-30T03:51:39.284Z,20.65
2024-01-30T04:06:41.793Z,20.66
2024-01-30T04:21:44.430Z,20.67
2024-01-30T04:36:47.190Z,20.69
2024-01-30T04:51:48.936Z,20.70
2024-01-30T05:06:50.654Z,20.69
2024-01-30T05:21:53.263Z,20.70
2024-01-30T05:36:54.951Z,20.73
2024-01-30T05:51:57.138Z,20.74
2024-01-30T06:06:59.811Z,20.74
2024-01-30T06:22:02.458Z,20.70
2024-01-30T06:37:05.939Z,20.69
2024-01-30T06:52:08.903Z,20.63
2024-01-30T07:07:11.699Z,20.56
2024-01-30T07:22:13.534Z,20.50
2024-01-30T07:37:15.281Z,20.42
2024-01-30T07:52:17.993Z,20.36
2024-01-30T08:07:22.097Z,20.40
2024-01-30T08:22:24.756Z,20.45
2024-01-30T08:37:26.578Z,20.46
2024-01-30T08:52:29.261Z,20.47
2024-01-30T09:07:31.933Z,20.48
2024-01-30T09:22:34.544Z,20.49
2024-01-30T09:37:37.171Z,20.53
2024-01-30T09:52:40.376Z,20.53
2024-01-30T10:07:53.916Z,20.54
2024-01-30T10:22:56.546Z,20.52
2024-01-30T10:38:00.139Z,20.54
2024-01-30T10:53:04.653Z,20.54
2024-01-30T11:08:16.263Z,20.56
2024-01-30T11:23:19.669Z,20.55
2024-01-30T11:38:23.827Z,20.58
2024-01-30T11:53:26.866Z,20.64
2024-01-30T12:08:29.545Z,20.75
2024-01-30T12:23:32.533Z,20.75
2024-01-30T12:38:35.770Z,20.72
2024-01-30T12:53:38.773Z,20.71
2024-01-30T13:08:41.308Z,20.70
2024-01-30T13:23:44.138Z,20.78
2024-01-30T13:38:45.996Z,20.85
2024-01-30T13:53:47.697Z,20.91
2024-01-30T14:08:57.468Z,20.96
2024-01-30T14:24:03.826Z,20.90
2024-01-30T14:39:06.095Z,20.86
2024-01-30T14:54:09.389Z,20.91
2024-01-30T15:09:11.967Z,20.91
2024-01-30T15:24:13.812Z,20.94
2024-01-30T15:39:16.340Z,20.89
2024-01-30T15:54:18.926Z,20.87
2024-01-30T16:09:21.550Z,20.85
2024-01-30T16:24:23.276Z,20.84
2024-01-30T16:39:24.984Z,20.82
2024-01-30T16:54:27.764Z,20.81
2024-01-30T17:09:30.595Z,20.79
2024-01-30T17:24:38.619Z,20.78
2024-01-30T17:39:49.488Z,20.79
2024-01-30T17:54:54.717Z,20.82
2024-01-30T18:09:59.379Z,20.83
2024-01-30T18:25:02.756Z,20.84
2024-01-30T18:40:06.784Z,20.82
2024-01-30T18:55:11.149Z,20.79
2024-01-30T19:10:13.139Z,20.79
2024-01-30T19:25:15.120Z,20.78
2024-01-30T19:40:16.947Z,20.77
2024-01-30T19:55:19.632Z,20.76
2024-01-30T20:10:22.247Z,20.75
2024-01-30T20:25:24.243Z,20.72
2024-01-30T20:40:26.881Z,20.67
2024-01-30T20:55:29.422Z,20.65
2024-01-30T21:10:32.314Z,20.61
2024-01-30T21:25:34.964Z,20.55
2024-01-30T21:40:36.857Z,20.52
2024-01-30T21:55:39.586Z,20.48
2024-01-30T22:10:42.245Z,20.43
2024-01-30T22:25:45.019Z,20.38
2024-01-30T22:40:47.874Z,20.35
2024-01-30T22:55:49.590Z,20.31
2024-01-30T23:10:51.386Z,20.26
2024-01-30T23:25:53.959Z,20.23
2024-01-30T23:40:57.423Z,20.12
2024-01-30T23:56:00.102Z,20.15
